Time;durP1;ratioP1;P1;durP2;ratioP2;P2;SDS_P1;SDS_P2;PMS_P1;PMS_P2;Temp;Humidity;BMP_temperature;BMP_pressure;BME280_temperature;BME280_humidity;BME280_pressure;Samples;Min_cycle;Max_cycle;Signal;HPM_P1;HPM_P2
2022/04/30 00:01:24;;;;;;;7.58;5.67;;;16.50;76.70;;;;;;1795900;80;21047;-57
2022/04/30 00:03:54;;;;;;;6.50;5.40;;;16.50;76.60;;;;;;1796142;80;21059;-57
2022/04/30 00:06:23;;;;;;;10.10;6.33;;;16.50;76.80;;;;;;1796055;80;21051;-58
2022/04/30 00:08:52;;;;;;;10.82;5.97;;;16.50;76.90;;;;;;1803620;78;21146;-57
2022/04/30 00:11:22;;;;;;;5.95;5.22;;;16.40;76.80;;;;;;1818320;79;21052;-58
2022/04/30 00:13:51;;;;;;;9.13;5.20;;;16.40;76.90;;;;;;1818265;78;21056;-57
2022/04/30 00:16:21;;;;;;;15.80;7.70;;;16.40;77.00;;;;;;1818357;79;21119;-57
2022/04/30 00:18:50;;;;;;;10.85;5.47;;;16.40;76.90;;;;;;1818309;79;21049;-57
2022/04/30 00:21:19;;;;;;;7.22;4.67;;;16.40;77.10;;;;;;1818368;79;21040;-57
2022/04/30 00:23:49;;;;;;;11.20;5.72;;;16.40;77.00;;;;;;1818383;78;21142;-57
2022/04/30 00:26:18;;;;;;;7.70;5.35;;;16.40;77.10;;;;;;1818396;78;21126;-57
2022/04/30 00:28:47;;;;;;;8.73;5.97;;;16.40;77.00;;;;;;1818494;79;21048;-57
2022/04/30 00:31:17;;;;;;;21.23;6.30;;;16.40;77.10;;;;;;1818542;79;21154;-57
2022/04/30 00:33:48;;;;;;;10.82;5.53;;;16.30;77.00;;;;;;1818313;78;21068;-57
2022/04/30 00:36:17;;;;;;;8.28;5.37;;;16.30;77.10;;;;;;1818572;79;21114;-56
2022/04/30 00:38:46;;;;;;;8.08;5.40;;;16.30;77.60;;;;;;1818349;79;21100;-57
2022/04/30 00:41:16;;;;;;;7.37;5.40;;;16.30;77.10;;;;;;1818399;79;21174;-57
2022/04/30 00:43:47;;;;;;;9.48;5.33;;;16.30;77.20;;;;;;1818262;79;21040;-57
2022/04/30 00:46:17;;;;;;;7.75;5.40;;;16.20;77.20;;;;;;1818297;78;21194;-57
2022/04/30 00:48:47;;;;;;;10.63;5.47;;;16.20;77.40;;;;;;1818374;78;21095;-57
2022/04/30 00:51:19;;;;;;;12.60;6.28;;;16.20;77.30;;;;;;1818411;79;21084;-57
2022/04/30 00:53:50;;;;;;;6.90;5.00;;;16.20;77.40;;;;;;1818417;78;21053;-57
2022/04/30 00:56:30;;;;;;;6.67;4.65;;;16.20;77.40;;;;;;1818422;78;21208;-57
2022/04/30 00:59:02;;;;;;;8.38;5.90;;;16.10;77.50;;;;;;1818251;78;21044;-57
2022/04/30 01:01:36;;;;;;;9.98;5.45;;;16.10;77.70;;;;;;1817877;79;21150;-57
2022/04/30 01:04:18;;;;;;;10.43;5.83;;;16.10;77.60;;;;;;1818673;78;21138;-57
2022/04/30 01:06:52;;;;;;;10.93;5.58;;;16.10;77.70;;;;;;1818335;79;21053;-57
2022/04/30 01:09:24;;;;;;;7.50;4.95;;;16.10;77.90;;;;;;1811624;77;21087;-57
2022/04/30 01:11:58;;;;;;;6.30;4.75;;;16.00;77.80;;;;;;1796034;78;21039;-57
2022/04/30 01:14:30;;;;;;;8.25;5.17;;;16.00;77.70;;;;;;1796036;80;21063;-57
2022/04/30 01:17:02;;;;;;;7.28;5.03;;;16.00;77.80;;;;;;1796042;80;21126;-57
2022/04/30 01:19:32;;;;;;;6.58;5.00;;;16.00;77.90;;;;;;1795985;79;21039;-57
2022/04/30 01:22:20;;;;;;;10.38;5.50;;;16.10;78.00;;;;;;1796000;80;21461;-57
2022/04/30 01:24:49;;;;;;;6.58;5.35;;;16.10;77.30;;;;;;1779037;78;21055;-57
2022/04/30 01:27:19;;;;;;;11.00;5.58;;;16.10;77.90;;;;;;1796065;80;21068;-57
2022/04/30 01:29:49;;;;;;;6.95;5.33;;;16.10;77.80;;;;;;1796031;80;21044;-57
2022/04/30 01:37:53;;;;;;;6.45;5.17;;;16.10;77.90;;;;;;1796039;78;21129;-57
2022/04/30 01:40:22;;;;;;;6.87;5.00;;;16.10;78.00;;;;;;1795798;78;21106;-58
2022/04/30 01:42:54;;;;;;;6.10;5.17;;;16.10;78.00;;;;;;1796004;80;21023;-57
2022/04/30 01:45:23;;;;;;;9.43;5.97;;;16.00;78.10;;;;;;1795909;80;21059;-56
2022/04/30 01:47:53;;;;;;;8.30;6.53;;;16.00;78.20;;;;;;1795886;80;21047;-57
2022/04/30 01:50:23;;;;;;;8.25;6.83;;;15.90;78.30;;;;;;1796015;80;21023;-57
2022/04/30 01:52:52;;;;;;;9.80;6.58;;;15.80;78.30;;;;;;1795957;80;21043;-57
2022/04/30 01:55:21;;;;;;;8.95;6.83;;;15.80;78.40;;;;;;1795898;80;21051;-57
2022/04/30 01:57:52;;;;;;;9.80;7.87;;;15.80;78.50;;;;;;1795660;80;21524;-56
2022/04/30 02:00:22;;;;;;;14.93;7.42;;;15.80;78.50;;;;;;1795914;80;21020;-57
2022/04/30 02:02:53;;;;;;;11.30;8.50;;;15.80;78.60;;;;;;1796005;80;21035;-57
2022/04/30 02:05:23;;;;;;;11.80;8.80;;;15.70;78.60;;;;;;1795881;78;21043;-57
2022/04/30 02:07:58;;;;;;;13.72;8.43;;;15.70;78.80;;;;;;1795898;80;21043;-56
2022/04/30 02:10:29;;;;;;;12.30;8.65;;;15.60;79.30;;;;;;1807323;78;21542;-56
2022/04/30 02:12:59;;;;;;;10.40;7.15;;;15.60;78.90;;;;;;1818232;79;21068;-57
2022/04/30 02:15:30;;;;;;;16.50;8.85;;;15.60;78.90;;;;;;1818251;78;21065;-56
2022/04/30 02:18:00;;;;;;;12.07;7.87;;;15.60;78.90;;;;;;1818228;78;21048;-57
2022/04/30 02:20:33;;;;;;;9.95;7.75;;;15.70;79.00;;;;;;1818279;79;21048;-57
2022/04/30 02:23:03;;;;;;;13.68;7.85;;;15.60;79.00;;;;;;1818330;77;21467;-57
2022/04/30 02:25:33;;;;;;;10.32;8.15;;;15.60;78.80;;;;;;1818270;79;21045;-57
2022/04/30 02:28:04;;;;;;;10.53;7.17;;;15.60;79.00;;;;;;1818239;79;21118;-57
2022/04/30 02:30:38;;;;;;;8.68;7.05;;;15.60;79.00;;;;;;1818342;79;21068;-57
2022/04/30 02:33:12;;;;;;;10.65;8.40;;;15.70;78.90;;;;;;1818356;78;21052;-57
2022/04/30 02:35:45;;;;;;;9.18;7.45;;;15.70;79.00;;;;;;1818291;78;21463;-57
2022/04/30 02:38:16;;;;;;;13.90;7.75;;;15.70;79.20;;;;;;1818255;79;21494;-58
2022/04/30 02:40:46;;;;;;;10.18;6.95;;;15.70;79.00;;;;;;1818216;78;21060;-57
2022/04/30 02:43:26;;;;;;;12.80;7.60;;;15.70;78.90;;;;;;1818507;79;21040;-57
2022/04/30 02:45:50;;;;;;;12.33;7.25;;;15.70;78.90;;;;;;1818705;78;21060;-57
2022/04/30 02:48:20;;;;;;;16.42;7.17;;;15.70;78.90;;;;;;1818406;79;21131;-57
2022/04/30 02:50:51;;;;;;;11.83;7.37;;;15.80;78.90;;;;;;1818381;79;21106;-58
2022/04/30 02:53:20;;;;;;;8.93;6.97;;;15.80;78.80;;;;;;1818299;79;21439;-58
2022/04/30 02:55:50;;;;;;;11.35;7.20;;;15.90;78.90;;;;;;1818319;78;21126;-57
2022/04/30 03:01:08;;;;;;;12.33;8.28;;;15.90;78.80;;;;;;1818399;79;21085;-58
2022/04/30 03:03:54;;;;;;;13.40;7.53;;;15.90;78.70;;;;;;1818691;78;21079;-58
2022/04/30 03:06:24;;;;;;;14.75;8.03;;;16.00;78.70;;;;;;1818416;79;21123;-57
2022/04/30 03:08:54;;;;;;;15.28;7.95;;;16.00;78.80;;;;;;1818284;79;21048;-57
2022/04/30 03:11:23;;;;;;;9.68;7.60;;;16.00;78.80;;;;;;1804927;77;21169;-58
2022/04/30 03:13:53;;;;;;;15.65;9.33;;;16.00;78.80;;;;;;1796039;80;21043;-57
2022/04/30 03:21:57;;;;;;;14.95;9.40;;;16.00;78.80;;;;;;1795996;80;21036;-57
2022/04/30 03:24:29;;;;;;;16.10;10.18;;;16.00;78.90;;;;;;1796017;80;21063;-57
2022/04/30 03:26:57;;;;;;;15.65;8.93;;;16.00;79.00;;;;;;1796024;80;21157;-57
2022/04/30 03:29:27;;;;;;;16.82;9.18;;;16.00;79.10;;;;;;1796025;80;21114;-57
2022/04/30 03:31:56;;;;;;;20.40;10.05;;;16.00;79.20;;;;;;1796174;80;21063;-57
2022/04/30 03:34:28;;;;;;;13.40;8.85;;;16.00;79.20;;;;;;1796055;80;21043;-57
2022/04/30 03:36:57;;;;;;;25.62;10.28;;;16.00;79.30;;;;;;1795947;78;21044;-57
2022/04/30 03:39:26;;;;;;;22.05;12.28;;;16.00;79.50;;;;;;1795922;80;21023;-57
2022/04/30 03:41:56;;;;;;;25.40;12.68;;;16.00;79.50;;;;;;1796055;80;21113;-58
2022/04/30 03:44:26;;;;;;;28.38;14.80;;;16.00;79.60;;;;;;1796064;80;21023;-57
2022/04/30 03:46:55;;;;;;;19.52;10.10;;;16.00;79.70;;;;;;1795972;80;21039;-57
2022/04/30 03:49:24;;;;;;;28.92;16.48;;;16.00;79.60;;;;;;1796069;78;21047;-57
2022/04/30 03:51:54;;;;;;;67.27;26.90;;;16.10;79.80;;;;;;1796042;80;21023;-57
2022/04/30 03:54:24;;;;;;;29.32;16.50;;;16.10;79.80;;;;;;1796058;80;21109;-57
2022/04/30 03:56:53;;;;;;;65.05;24.15;;;16.10;79.70;;;;;;1796012;80;21039;-57
2022/04/30 03:59:22;;;;;;;20.45;12.93;;;16.10;79.80;;;;;;1796048;80;21048;-57
2022/04/30 04:01:53;;;;;;;22.50;11.78;;;16.10;79.70;;;;;;1795852;80;21063;-57
2022/04/30 04:04:23;;;;;;;21.57;12.00;;;16.10;79.70;;;;;;1796028;80;21071;-57
2022/04/30 04:06:53;;;;;;;17.23;10.43;;;16.10;79.80;;;;;;1796122;78;21130;-57
2022/04/30 04:09:23;;;;;;;22.40;9.75;;;16.10;79.70;;;;;;1795996;80;21102;-57
2022/04/30 04:11:53;;;;;;;17.95;9.90;;;16.10;79.80;;;;;;1796127;78;21079;-57
2022/04/30 04:19:58;;;;;;;25.60;14.63;;;16.20;79.80;;;;;;1796000;78;21060;-57
2022/04/30 04:22:28;;;;;;;23.57;13.53;;;16.20;79.70;;;;;;1796015;80;21125;-57
2022/04/30 04:27:45;;;;;;;23.98;13.62;;;16.20;80.20;;;;;;1796007;80;21122;-57
2022/04/30 04:30:14;;;;;;;35.03;12.93;;;16.20;79.90;;;;;;1796099;80;21047;-57
2022/04/30 04:32:43;;;;;;;21.25;12.47;;;16.10;79.80;;;;;;1796020;80;21044;-57
2022/04/30 04:35:14;;;;;;;27.10;12.50;;;16.20;80.20;;;;;;1796073;80;21502;-57
2022/04/30 04:37:44;;;;;;;17.87;10.88;;;16.10;80.30;;;;;;1796061;80;21154;-57
2022/04/30 04:40:15;;;;;;;13.62;9.40;;;16.10;80.20;;;;;;1796134;80;21127;-57
2022/04/30 04:42:45;;;;;;;17.00;9.80;;;16.00;80.20;;;;;;1795978;80;21051;-57
2022/04/30 04:45:15;;;;;;;18.40;9.65;;;16.00;80.50;;;;;;1796136;80;21048;-58
2022/04/30 04:47:49;;;;;;;14.60;9.38;;;15.90;80.70;;;;;;1796028;79;21114;-57
2022/04/30 04:50:16;;;;;;;23.12;8.88;;;15.90;80.90;;;;;;1795927;80;21142;-57
2022/04/30 04:52:46;;;;;;;15.63;9.13;;;15.80;81.10;;;;;;1796092;80;21117;-57
2022/04/30 04:55:16;;;;;;;16.67;9.40;;;15.80;81.20;;;;;;1796139;80;21051;-57
2022/04/30 04:57:45;;;;;;;9.85;7.10;;;15.70;81.20;;;;;;1796098;80;21043;-59
2022/04/30 05:00:15;;;;;;;12.43;7.75;;;15.70;81.80;;;;;;1796038;80;21043;-58
2022/04/30 05:02:45;;;;;;;42.67;11.93;;;15.70;81.70;;;;;;1795865;80;21039;-58
2022/04/30 05:05:14;;;;;;;19.12;8.18;;;15.70;81.60;;;;;;1796009;79;21046;-58
2022/04/30 05:07:44;;;;;;;15.58;8.15;;;15.60;82.00;;;;;;1795938;79;21071;-58
2022/04/30 05:10:13;;;;;;;15.90;9.03;;;15.60;82.10;;;;;;1795974;80;21049;-58
2022/04/30 05:12:45;;;;;;;16.57;9.48;;;15.60;82.10;;;;;;1796143;78;21075;-58
2022/04/30 05:15:14;;;;;;;15.75;9.15;;;15.60;82.20;;;;;;1796174;78;21162;-58
2022/04/30 05:17:43;;;;;;;19.60;11.40;;;15.60;82.40;;;;;;1795888;80;21039;-58
2022/04/30 05:20:12;;;;;;;15.95;10.88;;;15.60;82.60;;;;;;1795929;80;21020;-58
2022/04/30 05:22:42;;;;;;;20.90;9.95;;;15.60;82.30;;;;;;1795769;78;21039;-58
2022/04/30 05:25:13;;;;;;;18.40;10.10;;;15.70;82.70;;;;;;1795913;80;21039;-58
2022/04/30 05:27:42;;;;;;;29.87;17.52;;;15.70;83.00;;;;;;1795801;80;21544;-57
2022/04/30 05:30:12;;;;;;;21.45;14.07;;;15.60;82.80;;;;;;1795812;80;21121;-58
2022/04/30 05:32:41;;;;;;;16.15;9.50;;;15.60;82.80;;;;;;1795744;80;21044;-58
2022/04/30 05:35:11;;;;;;;17.42;10.20;;;15.60;83.10;;;;;;1795889;78;21039;-58
2022/04/30 05:37:40;;;;;;;20.00;9.60;;;15.60;82.90;;;;;;1795787;80;21019;-58
2022/04/30 05:40:10;;;;;;;21.62;10.55;;;15.60;83.20;;;;;;1795820;80;21118;-58
2022/04/30 05:42:39;;;;;;;20.45;11.18;;;15.60;83.70;;;;;;1795907;80;21091;-57
2022/04/30 05:45:10;;;;;;;20.05;10.90;;;15.60;83.00;;;;;;1795890;78;21420;-58
2022/04/30 05:47:39;;;;;;;17.45;10.03;;;15.60;83.40;;;;;;1796071;80;21437;-58
2022/04/30 05:50:09;;;;;;;18.45;10.75;;;15.60;83.30;;;;;;1795955;80;21051;-57
2022/04/30 05:52:39;;;;;;;20.27;9.53;;;15.60;83.60;;;;;;1795716;78;21117;-58
2022/04/30 05:55:08;;;;;;;15.38;9.65;;;15.60;83.40;;;;;;1795789;80;21044;-58
2022/04/30 05:57:39;;;;;;;22.65;10.98;;;15.60;83.30;;;;;;1795736;80;21155;-57
2022/04/30 06:00:10;;;;;;;20.90;10.68;;;15.60;83.50;;;;;;1795811;80;21027;-57
2022/04/30 06:02:40;;;;;;;26.70;11.78;;;15.60;83.40;;;;;;1795750;80;21103;-58
2022/04/30 06:05:10;;;;;;;24.32;11.88;;;15.70;83.50;;;;;;1795633;80;21091;-58
2022/04/30 06:07:39;;;;;;;29.27;12.65;;;15.70;83.30;;;;;;1795711;80;21180;-58
2022/04/30 06:10:09;;;;;;;22.55;13.75;;;15.70;83.30;;;;;;1795787;80;21048;-57
2022/04/30 06:12:39;;;;;;;20.95;11.05;;;15.80;83.20;;;;;;1804142;78;21079;-58
2022/04/30 06:15:09;;;;;;;18.12;9.50;;;15.80;83.10;;;;;;1818314;78;21150;-58
2022/04/30 06:17:38;;;;;;;23.67;10.95;;;15.90;83.00;;;;;;1818136;79;21048;-57
2022/04/30 06:20:09;;;;;;;25.27;11.70;;;16.00;83.00;;;;;;1818340;79;21045;-58
2022/04/30 06:22:38;;;;;;;18.37;10.78;;;16.10;82.80;;;;;;1818082;79;21123;-58
2022/04/30 06:25:08;;;;;;;20.50;12.30;;;16.20;82.60;;;;;;1818210;79;21126;-57
2022/04/30 06:27:37;;;;;;;26.73;12.03;;;16.20;82.40;;;;;;1818062;79;21028;-57
2022/04/30 06:30:09;;;;;;;21.62;11.53;;;16.20;82.20;;;;;;1818104;79;21479;-58
2022/04/30 06:32:38;;;;;;;26.15;13.93;;;16.30;82.20;;;;;;1818104;79;21127;-58
2022/04/30 06:35:08;;;;;;;20.10;12.28;;;16.30;82.10;;;;;;1818269;79;21057;-58
2022/04/30 06:37:37;;;;;;;24.63;12.40;;;16.30;81.90;;;;;;1818139;78;21025;-57
2022/04/30 06:40:08;;;;;;;35.35;16.12;;;16.40;81.90;;;;;;1818257;79;21057;-58
2022/04/30 06:42:44;;;;;;;31.20;13.30;;;16.40;81.90;;;;;;1818106;78;21052;-58
2022/04/30 06:45:17;;;;;;;22.05;11.80;;;16.40;81.70;;;;;;1818083;79;21080;-57
2022/04/30 06:47:46;;;;;;;23.83;11.08;;;16.50;82.10;;;;;;1818191;78;21024;-57
2022/04/30 06:50:16;;;;;;;20.70;11.57;;;16.60;81.50;;;;;;1818142;79;21130;-56
2022/04/30 06:58:19;;;;;;;23.32;11.45;;;16.70;80.90;;;;;;1818055;79;21122;-56
2022/04/30 07:03:30;;;;;;;19.00;11.40;;;16.70;80.70;;;;;;1818066;78;21056;-57
2022/04/30 07:06:07;;;;;;;19.02;9.68;;;16.70;80.70;;;;;;1818061;79;21099;-57
2022/04/30 07:08:36;;;;;;;30.25;12.05;;;16.70;80.80;;;;;;1818146;79;21036;-57
2022/04/30 07:11:05;;;;;;;20.68;11.15;;;16.70;80.90;;;;;;1818101;78;21048;-59
2022/04/30 07:13:35;;;;;;;20.70;10.28;;;16.70;80.90;;;;;;1806794;78;21060;-57
2022/04/30 07:16:05;;;;;;;23.57;10.90;;;16.70;80.70;;;;;;1795758;79;21494;-57
2022/04/30 07:18:34;;;;;;;28.32;12.37;;;16.70;80.70;;;;;;1795758;80;21052;-57
2022/04/30 07:21:04;;;;;;;23.87;10.88;;;16.70;80.50;;;;;;1795770;79;21114;-57
2022/04/30 07:23:34;;;;;;;25.60;10.63;;;16.80;80.50;;;;;;1795781;80;21067;-57
2022/04/30 07:26:03;;;;;;;18.57;8.88;;;16.80;80.40;;;;;;1795817;80;21040;-57
2022/04/30 07:28:36;;;;;;;31.55;11.63;;;16.80;80.30;;;;;;1795749;78;21043;-57
2022/04/30 07:31:06;;;;;;;16.75;8.98;;;16.90;80.20;;;;;;1795845;80;21055;-57
2022/04/30 07:33:35;;;;;;;15.53;8.60;;;16.90;79.90;;;;;;1795848;80;21101;-57
2022/04/30 07:36:05;;;;;;;17.55;9.18;;;17.00;79.50;;;;;;1796008;79;21117;-57
2022/04/30 07:38:34;;;;;;;17.00;8.78;;;16.90;79.40;;;;;;1795762;80;21042;-56
2022/04/30 07:41:03;;;;;;;11.88;9.33;;;16.90;79.40;;;;;;1795651;80;21038;-58
2022/04/30 07:43:33;;;;;;;17.12;8.55;;;16.90;79.40;;;;;;1795423;78;21058;-57
2022/04/30 07:46:02;;;;;;;27.70;9.10;;;17.00;79.40;;;;;;1795605;80;21121;-57
2022/04/30 07:48:31;;;;;;;14.53;8.33;;;17.00;79.00;;;;;;1795579;78;21075;-57
2022/04/30 07:51:01;;;;;;;13.15;7.40;;;17.00;78.80;;;;;;1795603;80;21090;-57
2022/04/30 07:53:30;;;;;;;12.90;8.08;;;17.00;78.70;;;;;;1795655;80;21102;-57
2022/04/30 07:55:59;;;;;;;14.15;6.92;;;17.10;78.80;;;;;;1795646;78;21074;-57
2022/04/30 07:58:28;;;;;;;10.68;7.47;;;17.10;78.90;;;;;;1795742;80;21564;-58
2022/04/30 08:00:58;;;;;;;11.08;7.87;;;17.20;78.70;;;;;;1795751;80;21063;-57
2022/04/30 08:03:27;;;;;;;11.95;8.15;;;17.20;78.30;;;;;;1795745;78;21047;-57
2022/04/30 08:05:56;;;;;;;15.98;7.58;;;17.30;78.30;;;;;;1795727;80;21043;-57
2022/04/30 08:08:26;;;;;;;10.90;7.97;;;17.30;77.90;;;;;;1795768;80;21060;-58
2022/04/30 08:10:55;;;;;;;14.35;8.93;;;17.30;77.80;;;;;;1795725;80;21166;-58
2022/04/30 08:13:26;;;;;;;19.32;8.20;;;17.30;77.60;;;;;;1799936;78;21514;-58
2022/04/30 08:15:55;;;;;;;13.70;7.97;;;17.20;77.70;;;;;;1818122;78;21049;-57
2022/04/30 08:18:26;;;;;;;10.88;7.45;;;17.30;77.80;;;;;;1818093;78;21123;-57
2022/04/30 08:20:55;;;;;;;14.45;9.03;;;17.20;77.50;;;;;;1818058;79;21519;-57
2022/04/30 08:23:25;;;;;;;13.00;7.10;;;17.20;77.60;;;;;;1818044;79;21044;-57
2022/04/30 08:25:55;;;;;;;17.45;8.30;;;17.20;77.30;;;;;;1818160;78;21056;-57
2022/04/30 08:28:24;;;;;;;12.75;7.50;;;17.20;77.60;;;;;;1818078;78;21052;-58
2022/04/30 08:30:54;;;;;;;9.98;6.55;;;17.20;77.50;;;;;;1818104;79;21116;-57
2022/04/30 08:33:23;;;;;;;10.88;7.53;;;17.20;77.60;;;;;;1818171;79;21048;-57
2022/04/30 08:35:53;;;;;;;9.83;6.28;;;17.30;77.40;;;;;;1818112;78;21121;-57
2022/04/30 08:38:23;;;;;;;10.15;7.72;;;17.30;77.10;;;;;;1818115;79;21048;-57
2022/04/30 08:40:52;;;;;;;11.08;7.72;;;17.20;77.10;;;;;;1818016;79;21037;-57
2022/04/30 08:43:22;;;;;;;49.80;15.75;;;17.20;77.20;;;;;;1817993;79;21048;-57
2022/04/30 08:45:51;;;;;;;15.45;8.50;;;17.20;77.40;;;;;;1818143;78;21049;-57
2022/04/30 08:48:21;;;;;;;21.93;10.55;;;17.30;77.20;;;;;;1818013;79;21154;-57
2022/04/30 08:50:50;;;;;;;20.40;10.58;;;17.40;77.20;;;;;;1818141;79;21048;-57
2022/04/30 08:53:19;;;;;;;22.35;14.15;;;17.40;76.80;;;;;;1818018;79;21052;-57
2022/04/30 08:55:48;;;;;;;18.05;8.75;;;17.50;76.70;;;;;;1818157;78;21467;-57
2022/04/30 08:58:17;;;;;;;15.03;8.83;;;17.60;76.80;;;;;;1818041;78;21561;-56
2022/04/30 09:00:50;;;;;;;19.75;9.10;;;17.60;76.60;;;;;;1818098;79;21033;-57
2022/04/30 09:03:20;;;;;;;15.25;10.35;;;17.70;76.30;;;;;;1818111;79;21114;-57
2022/04/30 09:05:50;;;;;;;18.57;10.72;;;17.80;75.50;;;;;;1818128;78;21052;-57
2022/04/30 09:08:20;;;;;;;18.73;9.88;;;17.90;75.50;;;;;;1818195;78;21541;-57
2022/04/30 09:10:50;;;;;;;26.50;11.28;;;17.90;75.40;;;;;;1818145;78;21032;-57
2022/04/30 09:13:19;;;;;;;21.62;12.05;;;17.90;75.50;;;;;;1818122;79;21024;-57
2022/04/30 09:15:49;;;;;;;19.30;11.55;;;17.90;75.10;;;;;;1798046;78;21478;-57
2022/04/30 09:18:18;;;;;;;22.52;11.68;;;17.90;75.20;;;;;;1795703;80;21039;-57
2022/04/30 09:20:49;;;;;;;20.95;12.00;;;17.90;75.30;;;;;;1795721;80;21079;-57
2022/04/30 09:23:35;;;;;;;18.27;10.88;;;17.90;75.40;;;;;;1795985;80;21134;-57
2022/04/30 09:26:06;;;;;;;38.60;19.10;;;17.90;75.20;;;;;;1795964;80;21047;-57
2022/04/30 09:28:36;;;;;;;35.10;18.32;;;17.90;75.10;;;;;;1795841;80;21039;-57
2022/04/30 09:31:14;;;;;;;39.00;18.27;;;17.90;74.70;;;;;;1796030;80;21117;-56
2022/04/30 09:33:48;;;;;;;37.90;18.73;;;17.80;74.50;;;;;;1795867;80;21016;-57
2022/04/30 09:39:16;;;;;;;36.90;19.40;;;17.70;75.00;;;;;;1795836;80;21106;-57
2022/04/30 09:41:46;;;;;;;35.15;17.55;;;17.70;75.00;;;;;;1795766;79;21113;-57
2022/04/30 09:44:17;;;;;;;35.78;18.20;;;17.70;75.00;;;;;;1795894;80;21051;-57
2022/04/30 09:46:46;;;;;;;36.17;19.15;;;17.70;75.00;;;;;;1795766;80;21113;-57
2022/04/30 09:54:51;;;;;;;37.60;19.73;;;17.60;74.90;;;;;;1795773;79;21126;-57
2022/04/30 09:57:22;;;;;;;41.00;23.52;;;17.60;75.00;;;;;;1795904;80;21035;-57
2022/04/30 09:59:54;;;;;;;35.63;18.67;;;17.60;75.00;;;;;;1795832;80;21055;-56
2022/04/30 10:02:24;;;;;;;44.80;21.77;;;17.60;75.70;;;;;;1795664;80;21055;-57
2022/04/30 10:04:55;;;;;;;61.95;25.82;;;17.70;75.20;;;;;;1795681;80;21043;-57
2022/04/30 10:07:26;;;;;;;48.73;24.60;;;17.70;74.90;;;;;;1795707;80;21023;-56
2022/04/30 10:09:58;;;;;;;36.75;20.90;;;17.80;74.80;;;;;;1795663;80;21066;-57
2022/04/30 10:12:36;;;;;;;34.80;20.02;;;17.80;74.60;;;;;;1795838;80;21480;-57
2022/04/30 10:15:08;;;;;;;75.12;38.67;;;17.80;74.40;;;;;;1803312;78;21092;-57
2022/04/30 10:17:42;;;;;;;78.95;41.42;;;17.80;74.30;;;;;;1793359;79;21073;-58
2022/04/30 10:20:18;;;;;;;84.60;39.53;;;17.90;74.20;;;;;;1818115;78;21076;-57
2022/04/30 10:22:51;;;;;;;55.50;31.15;;;17.90;74.20;;;;;;1818086;79;21052;-57
2022/04/30 10:25:44;;;;;;;49.38;28.02;;;17.80;74.00;;;;;;1818130;78;21068;-56
2022/04/30 10:28:24;;;;;;;41.98;22.00;;;17.90;74.10;;;;;;1818284;79;21143;-57
2022/04/30 10:31:09;;;;;;;36.35;21.23;;;17.90;73.90;;;;;;1818126;78;21135;-56
2022/04/30 10:33:41;;;;;;;35.63;19.25;;;17.90;74.00;;;;;;1818403;79;21596;-57
2022/04/30 10:36:12;;;;;;;37.13;17.85;;;17.90;73.80;;;;;;1816168;78;21987;-57
2022/04/30 10:38:47;;;;;;;29.00;16.45;;;18.00;73.70;;;;;;1818069;79;21169;-57
2022/04/30 10:41:13;;;;;;;24.27;14.85;;;18.00;73.60;;;;;;1818002;78;21559;-57
2022/04/30 10:43:42;;;;;;;26.82;14.60;;;18.00;73.50;;;;;;1817992;78;21130;-57
2022/04/30 10:46:19;;;;;;;71.90;18.12;;;18.00;73.60;;;;;;1818012;79;21131;-57
2022/04/30 10:48:49;;;;;;;21.25;13.40;;;18.00;73.70;;;;;;1818066;79;21514;-57
2022/04/30 10:51:24;;;;;;;29.00;16.32;;;18.00;73.30;;;;;;1817937;78;21043;-57
2022/04/30 10:53:52;;;;;;;;;;;18.00;73.10;;;;;;1795587;79;21076;-57
2022/04/30 10:56:22;;;;;;;20.77;13.18;;;17.90;73.40;;;;;;1818088;79;20191;-58
2022/04/30 10:58:52;;;;;;;19.42;12.55;;;17.90;73.30;;;;;;1817943;79;21111;-58
2022/04/30 11:01:22;;;;;;;21.15;13.10;;;17.90;73.40;;;;;;1817949;79;21095;-57
2022/04/30 11:03:51;;;;;;;19.20;12.95;;;17.90;73.70;;;;;;1818152;78;21103;-58
2022/04/30 11:06:23;;;;;;;19.42;11.22;;;18.00;73.70;;;;;;1818117;79;21143;-58
2022/04/30 11:09:09;;;;;;;20.20;13.35;;;18.00;73.40;;;;;;1817664;79;21076;-58
2022/04/30 11:11:39;;;;;;;18.12;13.70;;;18.10;73.30;;;;;;1818035;78;21068;-57
2022/04/30 11:14:10;;;;;;;16.73;9.73;;;18.10;73.30;;;;;;1818055;79;21052;-58
2022/04/30 11:16:42;;;;;;;25.02;11.30;;;18.10;73.20;;;;;;1818018;77;21088;-57
2022/04/30 11:19:14;;;;;;;14.68;10.13;;;18.10;73.00;;;;;;1818036;79;21115;-58
2022/04/30 11:21:51;;;;;;;17.75;10.10;;;18.10;73.00;;;;;;1817992;79;21044;-58
2022/04/30 11:24:32;;;;;;;14.45;10.00;;;18.10;72.90;;;;;;1818072;79;21053;-59
2022/04/30 11:27:05;;;;;;;62.43;14.40;;;18.10;72.80;;;;;;1817976;79;21096;-58
2022/04/30 11:29:37;;;;;;;25.72;16.67;;;18.10;72.90;;;;;;1818035;79;21088;-56
2022/04/30 11:32:07;;;;;;;13.62;10.38;;;18.10;72.90;;;;;;1817962;78;21515;-56
2022/04/30 11:34:38;;;;;;;11.53;8.20;;;18.10;72.80;;;;;;1818302;79;21025;-56
2022/04/30 11:37:09;;;;;;;11.60;8.00;;;18.10;73.00;;;;;;1818203;79;21111;-56
2022/04/30 11:39:38;;;;;;;15.83;8.15;;;18.10;73.10;;;;;;1818174;79;21049;-56
2022/04/30 11:42:09;;;;;;;14.87;9.78;;;18.10;73.00;;;;;;1818102;78;21048;-56
2022/04/30 11:44:38;;;;;;;20.82;14.90;;;18.10;72.90;;;;;;1818255;79;21118;-56
2022/04/30 11:47:10;;;;;;;17.23;9.03;;;18.10;73.00;;;;;;1818209;78;21049;-56
2022/04/30 11:49:40;;;;;;;16.52;9.30;;;18.10;72.90;;;;;;1818138;79;21099;-58
2022/04/30 11:52:10;;;;;;;14.90;9.18;;;18.10;72.90;;;;;;1818438;78;21048;-58
2022/04/30 11:54:40;;;;;;;18.95;11.08;;;18.10;72.90;;;;;;1818306;79;21126;-57
2022/04/30 11:57:10;;;;;;;16.10;10.00;;;18.10;72.90;;;;;;1818216;78;21131;-57
2022/04/30 11:59:41;;;;;;;16.40;9.78;;;18.10;72.60;;;;;;1818201;79;21052;-58
2022/04/30 12:02:12;;;;;;;14.73;8.88;;;18.10;72.70;;;;;;1818195;79;21126;-57
2022/04/30 12:04:42;;;;;;;12.53;8.13;;;18.10;72.70;;;;;;1818271;78;21041;-57
2022/04/30 12:07:14;;;;;;;16.27;9.05;;;18.10;72.80;;;;;;1818253;79;21103;-57
2022/04/30 12:09:50;;;;;;;13.60;9.00;;;18.20;72.80;;;;;;1818324;78;21486;-58
2022/04/30 12:12:22;;;;;;;;;;;18.20;72.80;;;;;;1821029;79;21564;-57
2022/04/30 12:14:53;;;;;;;16.82;9.25;;;18.20;72.70;;;;;;1818256;79;20109;-57
2022/04/30 12:17:29;;;;;;;15.68;9.50;;;18.30;72.60;;;;;;1818162;78;21132;-58
2022/04/30 12:25:52;;;;;;;17.62;12.03;;;18.40;72.20;;;;;;1818356;79;21057;-58
2022/04/30 12:28:22;;;;;;;15.70;11.18;;;18.50;72.10;;;;;;1818425;78;21103;-57
2022/04/30 12:30:55;;;;;;;15.95;10.80;;;18.50;72.00;;;;;;1818201;78;21045;-57
2022/04/30 12:33:24;;;;;;;70.80;13.95;;;18.50;71.90;;;;;;1818252;79;21033;-57
2022/04/30 12:35:58;;;;;;;22.17;12.05;;;18.50;72.00;;;;;;1818118;79;21087;-57
2022/04/30 12:38:30;;;;;;;16.30;9.38;;;18.50;72.00;;;;;;1818188;79;21127;-57
2022/04/30 12:41:00;;;;;;;12.53;8.68;;;18.50;71.90;;;;;;1818136;78;21506;-57
2022/04/30 12:43:31;;;;;;;23.60;15.40;;;18.50;71.90;;;;;;1818318;79;21052;-57
2022/04/30 12:46:00;;;;;;;16.17;12.47;;;18.50;72.00;;;;;;1818223;79;21127;-57
2022/04/30 12:48:29;;;;;;;16.35;10.78;;;18.50;71.90;;;;;;1818152;79;21569;-57
2022/04/30 12:50:59;;;;;;;15.32;9.90;;;18.60;72.00;;;;;;1818195;79;21073;-57
2022/04/30 12:53:29;;;;;;;16.85;11.20;;;18.60;71.80;;;;;;1818203;78;21048;-58
2022/04/30 12:55:59;;;;;;;13.62;9.15;;;18.60;71.70;;;;;;1818218;79;21028;-57
2022/04/30 12:58:28;;;;;;;10.20;7.95;;;18.60;71.70;;;;;;1818289;78;21053;-57
2022/04/30 13:00:58;;;;;;;17.77;10.10;;;18.70;71.70;;;;;;1817990;79;21086;-57
2022/04/30 13:03:28;;;;;;;29.27;11.45;;;18.70;71.60;;;;;;1818189;79;21052;-57
2022/04/30 13:05:58;;;;;;;15.53;11.30;;;18.70;71.70;;;;;;1818066;78;21069;-58
2022/04/30 13:13:30;;;;;;;15.50;10.18;;;18.70;71.50;;;;;;1818262;78;21119;-57
2022/04/30 13:13:45;;;;;;;23.80;12.47;;;18.70;71.50;;;;;;1818142;79;21060;-57
2022/04/30 13:16:14;;;;;;;30.20;15.28;;;18.70;71.60;;;;;;1815312;78;21032;-57
2022/04/30 13:18:45;;;;;;;22.58;10.35;;;18.70;71.70;;;;;;1795833;79;21051;-57
2022/04/30 13:21:14;;;;;;;13.65;8.55;;;18.80;71.80;;;;;;1795721;80;21052;-57
2022/04/30 13:23:43;;;;;;;18.25;8.65;;;18.70;71.70;;;;;;1795892;80;21055;-57
2022/04/30 13:26:12;;;;;;;15.80;8.88;;;18.80;71.40;;;;;;1795850;80;21103;-57
2022/04/30 13:28:42;;;;;;;15.88;8.70;;;18.70;71.40;;;;;;1795901;79;21472;-57
2022/04/30 13:31:12;;;;;;;16.62;10.15;;;18.70;71.50;;;;;;1795780;78;21197;-57
2022/04/30 13:33:41;;;;;;;20.75;9.63;;;18.70;71.60;;;;;;1796114;80;21047;-57
2022/04/30 13:36:10;;;;;;;16.77;9.63;;;18.60;71.60;;;;;;1795725;80;21103;-57
2022/04/30 13:38:41;;;;;;;15.75;10.10;;;18.60;71.80;;;;;;1795848;79;21023;-57